Bolingbroke, Georgia
Current Conditions -  °F | °C
As of 7:53 PM on Friday 19 Dec 2014 (Local Time) from KMCN Reporting Station
Clear Clear  
Wind Chill: 50°   Ceiling: Unl
Heat Index: 50°   Visibility: 10mi
Dew Point: 42°   Wind: 0mph
Humidity: 74%   Direction: NA
Pressure: 30.14"   Gusts: NA
Location:  32.95°N, 83.8°W
Report Text: KMCN 200053Z 00000KT 10SM CLR 10/06 A3014 RMK AO2 SLP205 T01000056
Loading
Personal Weather Stations






























Interactive Weather Map New forecast layout! Learn more

10-Day Weather Forecast

Advertisements
Track Severe Weather on mobile